Time;durP1;ratioP1;P1;durP2;ratioP2;P2;SDS_P1;SDS_P2;PMS_P1;PMS_P2;Temp;Humidity;BMP_temperature;BMP_pressure;BME280_temperature;BME280_humidity;BME280_pressure;Samples;Min_cycle;Max_cycle;Signal;HPM_P1;HPM_P2
2023/10/12 00:02:27;;;;;;;12.75;5.18;;;;;;;18.86;57.47;100466.78;4155349;28;20038;-69
2023/10/12 00:04:35;;;;;;;9.63;4.35;;;;;;;18.72;57.94;100475.84;4151517;28;20041;-70
2023/10/12 00:06:43;;;;;;;13.05;4.45;;;;;;;18.77;58.11;100473.09;4154919;28;20046;-70
2023/10/12 00:08:45;;;;;;;9.63;4.70;;;;;;;18.76;57.57;100469.63;4154535;28;20121;-70
2023/10/12 00:10:54;;;;;;;15.27;5.03;;;;;;;18.71;58.35;100474.09;4154471;28;20046;-70
2023/10/12 00:12:59;;;;;;;9.85;4.35;;;;;;;18.65;58.15;100468.94;4154379;28;20034;-70
2023/10/12 00:15:05;;;;;;;9.38;4.40;;;;;;;18.67;58.17;100467.13;4154106;28;20556;-69
2023/10/12 00:17:08;;;;;;;8.95;4.45;;;;;;;18.64;58.31;100470.69;4154421;28;20068;-70
2023/10/12 00:19:12;;;;;;;14.20;4.83;;;;;;;18.69;57.81;100468.00;4156270;28;20033;-70
2023/10/12 00:21:18;;;;;;;12.63;5.00;;;;;;;18.73;58.01;100466.16;4149263;28;20072;-70
2023/10/12 00:23:22;;;;;;;11.60;5.18;;;;;;;18.76;58.20;100460.81;4150805;28;20042;-70
2023/10/12 00:25:24;;;;;;;9.75;4.47;;;;;;;18.75;58.35;100465.22;4155226;28;20034;-70
2023/10/12 00:27:26;;;;;;;12.32;5.28;;;;;;;18.78;57.92;100465.19;4154093;28;20060;-70
2023/10/12 00:29:32;;;;;;;9.35;4.47;;;;;;;18.74;58.32;100466.13;4151052;28;20515;-70
2023/10/12 00:31:37;;;;;;;10.52;4.90;;;;;;;18.66;58.68;100470.66;4152991;28;20072;-69
2023/10/12 00:33:40;;;;;;;12.63;5.38;;;;;;;18.71;58.69;100470.59;4155253;28;20037;-70
2023/10/12 00:35:48;;;;;;;8.57;4.30;;;;;;;18.63;58.63;100465.47;4154008;28;20100;-69
2023/10/12 00:37:54;;;;;;;14.45;4.80;;;;;;;18.67;58.61;100454.88;4154724;28;20052;-69
2023/10/12 00:39:58;;;;;;;14.30;5.90;;;;;;;18.71;58.58;100453.03;4153190;28;20041;-70
2023/10/12 00:42:01;;;;;;;15.18;5.15;;;;;;;18.62;58.80;100453.22;4153220;28;20048;-70
2023/10/12 00:44:10;;;;;;;13.48;4.75;;;;;;;18.66;58.37;100446.97;4154387;28;20442;-70
2023/10/12 00:46:21;;;;;;;8.63;4.00;;;;;;;18.61;58.53;100454.97;4151785;28;20049;-69
2023/10/12 00:48:30;;;;;;;10.10;5.18;;;;;;;18.66;58.33;100457.50;4154238;28;20065;-69
2023/10/12 00:50:33;;;;;;;7.97;3.97;;;;;;;18.55;58.80;100456.84;4152984;28;20045;-70
2023/10/12 00:52:46;;;;;;;12.07;4.88;;;;;;;18.52;59.03;100456.91;4150350;28;20034;-70
2023/10/12 00:54:56;;;;;;;8.90;4.22;;;;;;;18.58;58.47;100452.38;4153391;28;20128;-70
2023/10/12 00:57:02;;;;;;;12.68;5.00;;;;;;;18.56;58.69;100456.81;4155253;28;20040;-70
2023/10/12 00:59:04;;;;;;;8.38;4.20;;;;;;;18.53;59.27;100449.00;4155470;28;20479;-71
2023/10/12 01:01:08;;;;;;;8.63;4.78;;;;;;;18.53;59.35;100449.00;4150400;28;20044;-71
2023/10/12 01:03:30;;;;;;;12.63;5.07;;;;;;;18.54;59.03;100444.56;4157366;28;20038;-71
2023/10/12 01:05:36;;;;;;;13.50;5.45;;;;;;;18.48;59.64;100453.47;4148304;28;20527;-71
2023/10/12 01:07:39;;;;;;;10.38;4.82;;;;;;;18.51;59.27;100444.63;4152469;28;20500;-72
2023/10/12 01:09:42;;;;;;;8.68;4.15;;;;;;;18.45;59.80;100448.25;4152974;28;20038;-71
2023/10/12 01:11:51;;;;;;;12.65;4.80;;;;;;;18.43;59.53;100443.03;4154423;28;20045;-71
2023/10/12 01:14:09;;;;;;;12.57;5.13;;;;;;;18.47;59.50;100439.44;4153138;28;20089;-70
2023/10/12 01:16:21;;;;;;;9.15;4.95;;;;;;;18.42;59.37;100443.03;4147860;28;20049;-70
2023/10/12 01:18:28;;;;;;;11.63;5.15;;;;;;;18.41;59.70;100431.66;4135361;28;20304;-70
2023/10/12 01:20:38;;;;;;;17.25;5.60;;;;;;;18.39;59.95;100436.06;4156112;28;20440;-70
2023/10/12 01:22:43;;;;;;;12.05;4.40;;;;;;;18.40;59.97;100437.81;4152890;28;20508;-70
2023/10/12 01:24:57;;;;;;;11.13;4.72;;;;;;;18.39;59.78;100441.34;4153725;28;20075;-70
2023/10/12 01:27:00;;;;;;;7.25;4.22;;;;;;;18.37;59.88;100440.50;4151871;28;20084;-70
2023/10/12 01:29:03;;;;;;;7.80;3.90;;;;;;;18.38;59.63;100438.72;4155122;28;20026;-70
2023/10/12 01:31:06;;;;;;;12.60;4.60;;;;;;;18.38;59.92;100431.69;4153544;28;20026;-70
2023/10/12 01:33:09;;;;;;;10.00;4.93;;;;;;;18.35;59.70;100431.75;4157242;28;20427;-70
2023/10/12 01:35:12;;;;;;;9.70;4.85;;;;;;;18.34;60.20;100427.41;4153821;28;20132;-71
2023/10/12 01:37:21;;;;;;;10.02;4.95;;;;;;;18.28;60.52;100424.84;4154109;28;20041;-71
2023/10/12 01:39:28;;;;;;;10.45;4.45;;;;;;;18.24;60.40;100423.22;4153722;28;20096;-70
2023/10/12 01:41:32;;;;;;;12.68;4.95;;;;;;;18.23;60.31;100424.94;4154581;28;20519;-70
2023/10/12 01:43:35;;;;;;;9.43;5.50;;;;;;;18.26;60.49;100430.16;4145228;28;20033;-70
2023/10/12 01:45:41;;;;;;;11.43;4.22;;;;;;;18.23;60.13;100424.94;4153213;28;20458;-70
2023/10/12 01:47:50;;;;;;;12.00;4.80;;;;;;;18.21;60.44;100432.00;4152689;28;20045;-70
2023/10/12 01:49:54;;;;;;;9.43;4.03;;;;;;;18.19;60.59;100432.94;4145285;28;20030;-70
2023/10/12 01:51:58;;;;;;;10.27;4.95;;;;;;;18.18;60.63;100432.06;4155275;28;20037;-70
2023/10/12 01:54:05;;;;;;;12.23;5.80;;;;;;;18.18;60.78;100426.81;4151330;28;20039;-70
2023/10/12 01:56:10;;;;;;;12.55;5.43;;;;;;;18.13;60.53;100426.88;4151204;28;20041;-70
2023/10/12 01:58:16;;;;;;;9.18;4.30;;;;;;;18.09;60.73;100429.59;4152487;28;20470;-70
2023/10/12 02:00:25;;;;;;;10.90;4.30;;;;;;;18.10;60.96;100424.28;4151570;28;20038;-71
2023/10/12 02:02:28;;;;;;;12.88;4.82;;;;;;;18.05;60.97;100439.31;4149370;28;20048;-70
2023/10/12 02:04:31;;;;;;;11.50;4.43;;;;;;;18.05;61.26;100428.78;4153482;28;20030;-70
2023/10/12 02:06:39;;;;;;;9.95;4.78;;;;;;;18.04;61.38;100436.69;4154866;28;20041;-70
2023/10/12 02:08:45;;;;;;;9.57;4.18;;;;;;;18.01;61.36;100439.38;4153117;28;20142;-70
2023/10/12 02:10:58;;;;;;;13.48;4.53;;;;;;;17.97;61.47;100443.81;4155835;28;20120;-71
2023/10/12 02:13:02;;;;;;;16.50;4.82;;;;;;;17.96;61.69;100442.97;4156930;28;20103;-71
2023/10/12 02:15:07;;;;;;;8.48;4.80;;;;;;;17.92;61.73;100441.28;4156426;28;20041;-70
2023/10/12 02:17:09;;;;;;;;;;;;;;;17.82;61.91;100428.28;4140910;28;20051;-71
2023/10/12 02:19:19;;;;;;;9.90;5.03;;;;;;;17.80;61.97;100441.44;4139031;28;19921;-71
2023/10/12 02:21:22;;;;;;;8.23;4.95;;;;;;;17.83;62.24;100435.25;4159644;28;20041;-71
2023/10/12 02:23:32;;;;;;;13.85;5.25;;;;;;;17.86;62.49;100438.72;4159444;28;20128;-71
2023/10/12 02:25:37;;;;;;;12.18;5.65;;;;;;;17.81;62.35;100443.16;4158191;28;20050;-71
2023/10/12 02:27:41;;;;;;;9.65;4.47;;;;;;;17.80;62.70;100430.94;4156466;28;20492;-70
2023/10/12 02:29:49;;;;;;;9.07;4.82;;;;;;;17.83;62.74;100437.88;4153989;28;20504;-71
2023/10/12 02:31:58;;;;;;;16.23;6.28;;;;;;;17.89;63.05;100435.16;4156434;28;20057;-71
2023/10/12 02:34:02;;;;;;;11.63;5.57;;;;;;;17.87;62.60;100439.56;4153772;28;20061;-71
2023/10/12 02:36:06;;;;;;;10.65;4.40;;;;;;;17.72;63.33;100438.91;4154285;28;20041;-71
2023/10/12 02:38:14;;;;;;;11.95;4.82;;;;;;;17.71;63.33;100431.94;4156277;28;20038;-71
2023/10/12 02:40:17;;;;;;;10.25;5.03;;;;;;;17.74;63.14;100428.38;4155764;28;20491;-71
2023/10/12 02:42:28;;;;;;;18.15;5.30;;;;;;;17.75;63.19;100433.59;4155915;28;20061;-71
2023/10/12 02:44:34;;;;;;;12.15;5.40;;;;;;;17.67;63.19;100434.63;4150362;28;20076;-70
2023/10/12 02:46:48;;;;;;;15.05;5.40;;;;;;;17.65;63.08;100441.69;4156336;28;20073;-70
2023/10/12 02:48:52;;;;;;;14.75;6.18;;;;;;;17.63;63.12;100433.81;4153090;28;20055;-70
2023/10/12 02:50:57;;;;;;;10.65;5.57;;;;;;;17.69;62.94;100438.13;4155413;28;20056;-70
2023/10/12 02:53:08;;;;;;;12.45;5.05;;;;;;;17.61;62.92;100451.38;4154491;28;20092;-70
2023/10/12 02:55:24;;;;;;;16.90;5.47;;;;;;;17.54;63.30;100460.25;4153784;28;20093;-70
2023/10/12 02:57:28;;;;;;;12.45;5.35;;;;;;;17.57;63.07;100449.69;4166107;28;20082;-70
2023/10/12 02:59:37;;;;;;;11.25;5.75;;;;;;;17.56;62.76;100458.44;4139043;28;20088;-70
2023/10/12 03:01:42;;;;;;;14.18;6.05;;;;;;;17.54;62.98;100471.63;4154437;28;20085;-70
2023/10/12 03:03:48;;;;;;;13.65;4.50;;;;;;;17.55;63.24;100473.38;4155739;28;20064;-69
2023/10/12 03:05:53;;;;;;;10.27;5.50;;;;;;;17.53;63.35;100469.00;4157721;28;20515;-70
2023/10/12 03:08:05;;;;;;;16.55;6.13;;;;;;;17.54;63.35;100476.03;4157245;28;20125;-70
2023/10/12 03:10:24;;;;;;;10.90;5.25;;;;;;;17.55;62.90;100469.84;4155588;28;20038;-70
2023/10/12 03:12:33;;;;;;;10.27;5.13;;;;;;;17.56;63.26;100479.47;4159774;28;20056;-70
2023/10/12 03:14:36;;;;;;;17.55;5.10;;;;;;;17.55;62.93;100477.75;4154212;28;20048;-70
2023/10/12 03:16:42;;;;;;;10.35;5.07;;;;;;;17.60;63.01;100483.81;4154882;28;20439;-69
2023/10/12 03:18:45;;;;;;;11.27;5.47;;;;;;;17.54;63.10;100491.78;4155261;28;20037;-69
2023/10/12 03:21:02;;;;;;;11.15;5.10;;;;;;;17.51;63.25;100489.19;4157985;28;20046;-69
2023/10/12 03:23:13;;;;;;;12.68;5.25;;;;;;;17.51;63.17;100470.78;4149466;28;20042;-69
2023/10/12 03:25:19;;;;;;;13.75;5.90;;;;;;;17.49;63.51;100488.34;4155859;28;20041;-70
2023/10/12 03:27:23;;;;;;;12.20;6.22;;;;;;;17.64;62.81;100509.16;4154117;28;20475;-71
2023/10/12 03:29:26;;;;;;;14.20;5.23;;;;;;;17.67;62.24;100495.09;4155235;28;20043;-70
2023/10/12 03:31:36;;;;;;;10.30;5.05;;;;;;;17.61;62.88;100493.44;4154630;28;20049;-70
2023/10/12 03:33:39;;;;;;;12.23;5.70;;;;;;;17.55;63.15;100498.75;4152236;28;20077;-70
2023/10/12 03:35:51;;;;;;;9.07;4.43;;;;;;;17.48;63.27;100518.13;4155059;28;20523;-70
2023/10/12 03:38:01;;;;;;;11.95;5.53;;;;;;;17.34;64.02;100521.81;4156146;28;20128;-70
2023/10/12 03:40:23;;;;;;;17.70;5.07;;;;;;;17.47;63.60;100516.41;4158911;28;20049;-70
2023/10/12 03:44:53;;;;;;;15.35;5.28;;;;;;;17.43;63.36;100508.59;4156273;28;20077;-70
2023/10/12 03:47:00;;;;;;;11.40;4.72;;;;;;;17.35;63.88;100510.44;4156664;28;20056;-69
2023/10/12 03:49:09;;;;;;;13.77;5.43;;;;;;;17.40;63.51;100508.59;4152606;28;20041;-69
2023/10/12 03:51:24;;;;;;;15.48;5.40;;;;;;;17.35;64.00;100517.44;4153126;28;20026;-70
2023/10/12 03:53:41;;;;;;;11.82;4.72;;;;;;;17.33;63.92;100520.06;4153323;28;20403;-70
2023/10/12 03:55:49;;;;;;;11.10;5.00;;;;;;;17.36;64.02;100512.19;4155194;28;20048;-69
2023/10/12 03:58:05;;;;;;;13.82;5.78;;;;;;;17.40;63.91;100510.38;4156092;28;20041;-70
2023/10/12 04:02:44;;;;;;;14.50;6.55;;;;;;;17.42;63.96;100504.19;4244045;27;20386;-71
2023/10/12 04:05:00;;;;;;;17.92;6.78;;;;;;;17.50;63.90;100490.09;4223731;28;20044;-71
2023/10/12 04:07:17;;;;;;;10.50;5.63;;;;;;;17.27;64.75;100497.41;4219933;28;20058;-70
2023/10/12 04:09:31;;;;;;;10.70;5.50;;;;;;;17.19;64.65;100501.88;4217454;28;21551;-69
2023/10/12 04:11:48;;;;;;;15.77;7.20;;;;;;;17.13;65.19;100512.47;4217436;28;20032;-70
2023/10/12 04:14:11;;;;;;;11.18;5.80;;;;;;;17.20;64.72;100507.97;4219781;28;20721;-66
2023/10/12 04:18:33;;;;;;;15.75;6.95;;;;;;;17.26;64.51;100503.53;4216958;28;20460;-65
2023/10/12 04:20:39;;;;;;;13.05;6.95;;;;;;;17.27;64.80;100514.91;4217236;28;20043;-66
2023/10/12 04:23:13;;;;;;;13.85;6.63;;;;;;;17.27;64.84;100520.16;4218838;28;20060;-65
2023/10/12 04:25:13;;;;;;;11.85;6.82;;;;;;;17.30;64.65;100524.50;4219973;28;20042;-65
2023/10/12 04:27:38;;;;;;;16.73;7.03;;;;;;;17.43;64.42;100513.84;4219136;28;20040;-65
2023/10/12 04:30:19;;;;;;;14.55;7.25;;;;;;;17.29;64.81;100515.78;4213017;28;20044;-65
2023/10/12 04:32:34;;;;;;;12.63;6.43;;;;;;;17.24;64.77;100515.84;4221462;28;20032;-65
2023/10/12 04:34:47;;;;;;;12.23;6.28;;;;;;;17.24;64.74;100517.56;4225775;28;21815;-66
2023/10/12 04:37:07;;;;;;;11.13;5.65;;;;;;;17.23;64.84;100528.97;4224306;28;20130;-65
2023/10/12 04:40:17;;;;;;;14.70;7.28;;;;;;;17.31;65.13;100510.50;4226118;28;20156;-66
2023/10/12 04:42:23;;;;;;;11.48;6.43;;;;;;;17.18;65.41;100505.38;4225930;28;20036;-66
2023/10/12 04:44:39;;;;;;;13.05;6.30;;;;;;;17.17;65.57;100521.16;4227325;28;20405;-65
2023/10/12 04:46:47;;;;;;;13.63;6.57;;;;;;;17.12;65.58;100509.84;4224168;28;20164;-66
2023/10/12 04:48:51;;;;;;;14.93;6.45;;;;;;;17.15;65.94;100494.06;4223727;28;20036;-66
2023/10/12 04:50:59;;;;;;;13.05;6.68;;;;;;;17.26;65.10;100486.91;4222386;28;20089;-66
2023/10/12 04:53:08;;;;;;;12.38;6.30;;;;;;;17.17;65.55;100492.25;4226819;28;20039;-65
2023/10/12 04:55:20;;;;;;;13.27;6.25;;;;;;;17.20;65.51;100486.97;4227167;28;20062;-65
2023/10/12 04:57:26;;;;;;;17.40;4.95;;;;;;;17.32;63.38;100494.72;4226530;28;20389;-65
2023/10/12 04:59:43;;;;;;;9.60;5.13;;;;;;;17.39;63.88;100493.75;4226933;28;20366;-65
2023/10/12 05:02:13;;;;;;;14.07;6.20;;;;;;;17.52;64.11;100496.19;4226474;28;20519;-65
2023/10/12 05:04:35;;;;;;;13.73;5.70;;;;;;;17.52;64.67;100493.56;4227099;28;20067;-65
2023/10/12 05:06:47;;;;;;;7.50;4.45;;;;;;;17.52;64.16;100497.06;4225542;28;20773;-65
2023/10/12 05:08:54;;;;;;;10.18;4.97;;;;;;;17.57;64.30;100507.53;4226412;28;20036;-65
2023/10/12 05:10:57;;;;;;;12.07;6.10;;;;;;;17.63;64.04;100502.16;4227173;28;20067;-65
2023/10/12 05:13:04;;;;;;;12.05;6.03;;;;;;;17.60;64.37;100496.97;4219251;28;20028;-65
2023/10/12 05:15:11;;;;;;;12.85;6.07;;;;;;;17.62;64.70;100495.16;4215359;28;20497;-66
2023/10/12 05:17:15;;;;;;;9.13;5.40;;;;;;;17.62;64.91;100489.91;4211898;28;20035;-66
2023/10/12 05:19:18;;;;;;;9.35;5.30;;;;;;;17.61;64.89;100499.56;4215193;28;20040;-65
2023/10/12 05:21:21;;;;;;;12.75;5.18;;;;;;;17.59;65.30;100505.72;4215123;28;20035;-66
2023/10/12 05:23:25;;;;;;;10.27;5.63;;;;;;;17.60;65.01;100505.69;4215199;28;20085;-65
2023/10/12 05:25:38;;;;;;;12.70;6.68;;;;;;;17.59;65.46;100511.84;4215789;28;20074;-65
2023/10/12 05:28:04;;;;;;;12.77;5.75;;;;;;;17.58;65.44;100514.50;4211878;28;20028;-65
2023/10/12 05:30:16;;;;;;;11.30;5.50;;;;;;;17.57;65.41;100497.00;4214139;28;20051;-66
2023/10/12 05:32:24;;;;;;;10.82;5.07;;;;;;;17.50;65.87;100501.47;4220531;28;20081;-65
2023/10/12 05:34:32;;;;;;;9.77;5.22;;;;;;;17.47;65.71;100506.75;4215053;28;20122;-65
2023/10/12 05:36:35;;;;;;;13.82;6.05;;;;;;;17.47;65.88;100517.28;4215003;28;20036;-66
2023/10/12 05:38:48;;;;;;;11.13;6.28;;;;;;;17.45;66.12;100529.59;4213747;28;20110;-65
2023/10/12 05:40:55;;;;;;;14.55;5.60;;;;;;;17.42;66.01;100524.34;4211686;28;20055;-65
2023/10/12 05:42:58;;;;;;;11.77;5.75;;;;;;;17.42;66.08;100505.94;4215187;28;20127;-65
2023/10/12 05:45:19;;;;;;;11.68;6.47;;;;;;;17.44;65.99;100512.06;4216762;28;20047;-65
2023/10/12 05:47:28;;;;;;;7.72;4.93;;;;;;;17.36;65.90;100520.06;4214406;28;20036;-65
2023/10/12 05:49:33;;;;;;;10.23;4.57;;;;;;;17.37;65.51;100532.28;4212692;28;20058;-65
2023/10/12 05:51:37;;;;;;;14.82;6.20;;;;;;;17.41;65.40;100527.88;4214583;28;20039;-65
2023/10/12 05:53:41;;;;;;;11.18;4.60;;;;;;;17.43;65.45;100537.50;4214594;28;20115;-65
2023/10/12 05:55:47;;;;;;;11.63;5.70;;;;;;;17.51;65.52;100539.13;4214429;28;20064;-65
2023/10/12 05:57:50;;;;;;;8.32;5.47;;;;;;;17.51;65.46;100560.16;4214869;28;20040;-65
2023/10/12 05:59:58;;;;;;;10.85;5.20;;;;;;;17.47;65.64;100569.84;4214450;28;20040;-66
2023/10/12 06:02:01;;;;;;;7.32;5.30;;;;;;;17.48;65.66;100568.06;4214432;28;20032;-66
2023/10/12 06:04:05;;;;;;;13.90;5.72;;;;;;;17.51;65.49;100560.16;4214613;28;20050;-65
2023/10/12 06:06:09;;;;;;;7.55;4.50;;;;;;;17.53;65.31;100542.63;4213865;28;20036;-65
2023/10/12 06:08:17;;;;;;;14.35;5.47;;;;;;;17.53;65.65;100532.97;4214385;28;20122;-65
2023/10/12 06:10:23;;;;;;;16.85;6.25;;;;;;;17.51;65.55;100541.75;4214741;28;20036;-65
2023/10/12 06:12:29;;;;;;;11.38;5.85;;;;;;;17.57;65.37;100539.06;4214541;28;20043;-65
2023/10/12 06:14:33;;;;;;;13.18;5.63;;;;;;;17.59;65.38;100524.13;4214463;28;20411;-65
2023/10/12 06:16:40;;;;;;;9.65;5.53;;;;;;;17.58;65.42;100522.38;4214345;28;20134;-65
2023/10/12 06:18:45;;;;;;;13.07;5.85;;;;;;;17.56;65.37;100527.66;4213670;28;20058;-65
2023/10/12 06:20:58;;;;;;;9.77;5.30;;;;;;;17.53;65.56;100514.56;4214102;28;20505;-65
2023/10/12 06:23:05;;;;;;;9.30;5.45;;;;;;;17.56;65.51;100524.16;4211541;28;20056;-65
2023/10/12 06:25:11;;;;;;;14.73;5.90;;;;;;;17.57;65.87;100553.06;4210158;28;20035;-65
2023/10/12 06:27:23;;;;;;;8.73;5.30;;;;;;;17.56;66.01;100567.09;4212656;28;20051;-65
2023/10/12 06:29:28;;;;;;;12.57;4.90;;;;;;;17.53;66.15;100584.69;4212612;28;20059;-66
2023/10/12 06:31:31;;;;;;;13.50;5.50;;;;;;;17.56;65.90;100584.63;4214104;28;20119;-66
2023/10/12 06:33:40;;;;;;;8.18;4.68;;;;;;;17.58;65.88;100585.47;4214137;28;20039;-65
2023/10/12 06:35:58;;;;;;;8.98;5.13;;;;;;;17.59;65.36;100584.59;4214103;28;20047;-66
2023/10/12 06:42:38;;;;;;;7.40;4.75;;;;;;;17.72;65.21;100580.91;4211468;28;20042;-65
2023/10/12 06:44:40;;;;;;;12.90;4.95;;;;;;;17.72;64.77;100588.78;4213879;28;20044;-66
2023/10/12 06:46:46;;;;;;;13.63;4.88;;;;;;;17.76;64.64;100597.53;4217703;28;20040;-66
2023/10/12 06:48:58;;;;;;;7.18;4.80;;;;;;;17.75;64.83;100596.63;4214253;28;20067;-66
2023/10/12 06:51:02;;;;;;;11.73;4.78;;;;;;;17.76;64.76;100594.91;4213772;28;20036;-66
2023/10/12 06:53:06;;;;;;;13.38;5.07;;;;;;;17.78;64.66;100606.25;4213697;28;20123;-66
2023/10/12 06:55:28;;;;;;;11.63;4.75;;;;;;;17.84;64.26;100616.69;4212511;28;20028;-66
2023/10/12 06:57:36;;;;;;;11.32;5.13;;;;;;;17.85;64.22;100607.91;4209233;28;20036;-65
2023/10/12 06:59:52;;;;;;;13.32;4.75;;;;;;;17.88;64.46;100602.59;4213919;28;20120;-65
2023/10/12 07:02:09;;;;;;;11.93;5.88;;;;;;;17.92;65.02;100601.72;4213666;28;20115;-65
2023/10/12 07:04:13;;;;;;;10.75;4.88;;;;;;;17.92;64.79;100598.22;4210758;28;20058;-66
2023/10/12 07:06:17;;;;;;;10.20;5.00;;;;;;;17.91;64.53;100597.34;4209539;28;20456;-66
2023/10/12 07:08:21;;;;;;;13.20;5.45;;;;;;;17.92;64.73;100592.97;4213025;28;20409;-66
2023/10/12 07:10:27;;;;;;;11.63;5.47;;;;;;;18.02;64.16;100591.94;4213578;28;20067;-66
2023/10/12 07:12:33;;;;;;;12.35;5.45;;;;;;;18.00;64.42;100596.34;4213131;28;20063;-66
2023/10/12 07:14:38;;;;;;;8.85;5.32;;;;;;;18.05;63.87;100604.19;4211317;28;20518;-65
2023/10/12 07:16:54;;;;;;;9.77;5.53;;;;;;;18.08;63.89;100614.66;4213096;28;20044;-66
2023/10/12 07:18:59;;;;;;;9.93;4.85;;;;;;;18.09;63.67;100624.28;4211236;28;20477;-66
2023/10/12 07:21:21;;;;;;;12.30;5.57;;;;;;;18.06;63.99;100612.06;4213238;28;20460;-66
2023/10/12 07:23:34;;;;;;;13.45;5.60;;;;;;;18.14;63.73;100617.19;4213105;28;20401;-66
2023/10/12 07:25:36;;;;;;;9.07;4.63;;;;;;;18.17;63.83;100611.03;4213582;28;20455;-66
2023/10/12 07:27:56;;;;;;;9.15;4.75;;;;;;;18.23;64.07;100618.81;4212891;28;20044;-66
2023/10/12 07:30:09;;;;;;;10.70;4.90;;;;;;;18.22;64.12;100610.03;4211928;28;20501;-66
2023/10/12 07:32:30;;;;;;;10.63;5.30;;;;;;;18.24;64.14;100616.16;4209832;28;20040;-66
2023/10/12 07:34:33;;;;;;;8.85;4.45;;;;;;;18.27;63.75;100625.78;4210572;28;20040;-66
2023/10/12 07:36:52;;;;;;;9.98;4.90;;;;;;;18.31;64.02;100623.09;4212844;28;20093;-68
2023/10/12 07:39:14;;;;;;;7.95;4.50;;;;;;;18.33;63.83;100633.59;4211852;28;20116;-66
2023/10/12 07:41:27;;;;;;;12.77;5.00;;;;;;;18.36;64.28;100625.63;4208530;28;20071;-66
2023/10/12 07:43:31;;;;;;;10.77;5.20;;;;;;;18.43;64.23;100613.25;4210118;28;20028;-65
2023/10/12 07:45:38;;;;;;;;;;;;;;;18.38;64.15;100617.72;4212028;28;20031;-66
2023/10/12 07:47:58;;;;;;;11.13;5.43;;;;;;;18.39;64.54;100615.06;4219832;28;20041;-66
2023/10/12 07:50:09;;;;;;;12.55;4.80;;;;;;;18.46;63.71;100606.16;4209837;28;20040;-66
2023/10/12 07:52:22;;;;;;;8.95;4.80;;;;;;;18.49;63.62;100611.38;4209360;28;20127;-66
2023/10/12 07:54:46;;;;;;;9.38;5.07;;;;;;;18.56;64.18;100608.63;4212924;28;20056;-66
2023/10/12 07:56:49;;;;;;;12.50;5.25;;;;;;;18.54;64.29;100602.53;4211803;28;20036;-66
2023/10/12 07:58:57;;;;;;;9.45;5.13;;;;;;;18.58;63.73;100613.00;4212882;28;20082;-66
2023/10/12 08:01:19;;;;;;;12.25;5.70;;;;;;;18.69;63.09;100623.38;4211537;28;20075;-66
2023/10/12 08:03:26;;;;;;;11.63;5.72;;;;;;;18.65;63.35;100613.78;4207874;28;20490;-66
2023/10/12 08:05:44;;;;;;;11.13;4.57;;;;;;;18.68;63.17;100605.81;4214137;28;20064;-66
2023/10/12 08:08:08;;;;;;;9.88;5.18;;;;;;;18.72;63.38;100615.41;4212765;28;20417;-66
2023/10/12 08:10:15;;;;;;;15.55;5.70;;;;;;;18.74;63.14;100608.34;4211080;28;20036;-66
2023/10/12 08:12:27;;;;;;;11.25;4.68;;;;;;;18.78;63.68;100614.44;4212828;28;20036;-66
2023/10/12 08:14:39;;;;;;;13.65;5.47;;;;;;;18.84;63.23;100606.44;4212893;28;20474;-66
2023/10/12 08:16:43;;;;;;;9.27;4.63;;;;;;;18.82;63.90;100613.47;4212271;28;20117;-66
2023/10/12 08:21:21;;;;;;;12.48;5.22;;;;;;;18.91;64.25;100599.31;4211747;28;20054;-66
2023/10/12 08:23:27;;;;;;;11.63;5.30;;;;;;;18.97;64.59;100594.81;4212487;28;20186;-66
2023/10/12 08:25:38;;;;;;;7.93;5.03;;;;;;;18.97;65.02;100594.81;4212669;28;20765;-66
2023/10/12 08:27:52;;;;;;;11.18;5.32;;;;;;;18.96;64.33;100606.22;4212291;28;20472;-66
2023/10/12 08:30:11;;;;;;;11.73;5.68;;;;;;;19.06;63.53;100622.75;4212732;28;20101;-66
2023/10/12 08:32:27;;;;;;;11.10;5.65;;;;;;;19.06;63.16;100643.81;4212749;28;20428;-66
2023/10/12 08:37:18;;;;;;;13.80;5.82;;;;;;;19.12;63.28;100634.94;4216385;28;20048;-66
2023/10/12 08:39:36;;;;;;;11.05;5.22;;;;;;;19.19;62.76;100628.66;4210631;28;20065;-65
2023/10/12 08:42:08;;;;;;;12.85;5.28;;;;;;;19.28;63.05;100627.63;4215972;28;20040;-65
2023/10/12 08:44:10;;;;;;;15.32;5.40;;;;;;;19.25;62.67;100638.22;4209981;28;20036;-65
2023/10/12 08:46:22;;;;;;;11.80;5.32;;;;;;;19.27;62.66;100636.41;4212488;28;20032;-65
2023/10/12 08:48:35;;;;;;;12.60;5.75;;;;;;;19.33;62.42;100629.28;4210775;28;20085;-65
2023/10/12 08:50:58;;;;;;;24.70;6.97;;;;;;;19.38;61.96;100626.53;4216619;28;20036;-65
2023/10/12 08:53:03;;;;;;;17.33;6.82;;;;;;;19.40;61.91;100629.16;4213433;28;20039;-65
2023/10/12 08:55:11;;;;;;;27.45;6.85;;;;;;;19.42;61.17;100635.25;4212954;28;20047;-65
2023/10/12 08:57:32;;;;;;;18.48;6.82;;;;;;;19.45;61.59;100641.34;4214301;28;20032;-65
2023/10/12 08:59:41;;;;;;;17.95;5.60;;;;;;;19.51;62.08;100632.44;4213686;28;20151;-65
2023/10/12 09:01:44;;;;;;;13.65;5.50;;;;;;;19.54;62.14;100635.03;4215017;28;20497;-65
2023/10/12 09:03:52;;;;;;;13.65;6.05;;;;;;;19.59;61.80;100634.91;4214871;28;20147;-66
2023/10/12 09:05:58;;;;;;;13.93;5.45;;;;;;;19.65;61.95;100632.16;4215129;28;20137;-66
2023/10/12 09:08:24;;;;;;;17.02;5.82;;;;;;;19.70;62.13;100630.31;4215032;28;20050;-66
2023/10/12 09:10:36;;;;;;;15.13;6.45;;;;;;;19.77;62.67;100631.91;4214981;28;20066;-66
2023/10/12 09:12:40;;;;;;;20.73;7.03;;;;;;;19.77;62.06;100634.56;4215129;28;20036;-66
2023/10/12 09:14:44;;;;;;;21.02;7.03;;;;;;;19.77;62.17;100639.81;4215140;28;20031;-66
2023/10/12 09:16:53;;;;;;;20.02;6.47;;;;;;;19.80;62.10;100638.91;4215324;28;20039;-66
2023/10/12 09:19:00;;;;;;;21.90;6.35;;;;;;;19.81;61.92;100644.16;4214728;28;20062;-66
2023/10/12 09:21:16;;;;;;;22.90;7.28;;;;;;;19.88;61.62;100650.16;4214951;28;20032;-66
2023/10/12 09:23:28;;;;;;;19.33;6.15;;;;;;;19.83;62.01;100658.19;4214965;28;20501;-66
2023/10/12 09:26:14;;;;;;;14.02;5.88;;;;;;;19.84;61.67;100670.50;4214871;28;20402;-66
2023/10/12 09:28:18;;;;;;;23.73;6.70;;;;;;;19.82;61.83;100660.88;4212997;28;20043;-66
2023/10/12 09:30:25;;;;;;;15.15;5.72;;;;;;;19.82;62.06;100656.44;4214624;28;20036;-66
2023/10/12 09:32:28;;;;;;;16.17;6.82;;;;;;;19.83;61.89;100652.91;4211749;28;20035;-66
2023/10/12 09:34:47;;;;;;;17.73;5.88;;;;;;;19.82;62.32;100655.59;4214356;28;20035;-66
2023/10/12 09:36:53;;;;;;;12.30;5.97;;;;;;;19.79;62.35;100651.22;4211384;28;20040;-66
2023/10/12 09:38:57;;;;;;;15.45;6.10;;;;;;;19.77;61.76;100654.75;4210350;28;20096;-66
2023/10/12 09:41:03;;;;;;;17.05;6.18;;;;;;;19.75;62.02;100649.53;4213121;28;20047;-66
2023/10/12 09:43:12;;;;;;;15.65;6.45;;;;;;;19.75;62.00;100651.31;4214338;28;20040;-66
2023/10/12 09:45:19;;;;;;;15.07;6.07;;;;;;;19.74;61.81;100657.47;4208469;28;20115;-66
2023/10/12 09:47:55;;;;;;;13.20;5.20;;;;;;;19.73;61.92;100659.25;4214091;28;20071;-66
2023/10/12 09:50:13;;;;;;;14.43;5.63;;;;;;;19.73;62.54;100656.63;4217500;28;20028;-66
2023/10/12 09:52:21;;;;;;;16.25;6.03;;;;;;;19.71;62.39;100647.84;4211430;28;20040;-66
2023/10/12 09:54:30;;;;;;;14.88;6.15;;;;;;;19.71;62.55;100640.81;4212371;28;20032;-66
2023/10/12 09:56:44;;;;;;;13.18;5.88;;;;;;;19.66;62.19;100655.00;4212645;28;20035;-66
2023/10/12 09:58:52;;;;;;;16.27;5.70;;;;;;;19.67;62.03;100662.03;4209038;28;20040;-66
2023/10/12 10:01:01;;;;;;;12.50;5.82;;;;;;;19.67;62.32;100651.47;4213095;28;20044;-66
2023/10/12 10:03:08;;;;;;;12.18;4.70;;;;;;;19.67;62.25;100635.66;4210467;28;20040;-66
2023/10/12 10:05:39;;;;;;;10.38;5.63;;;;;;;19.67;62.73;100654.09;4211044;28;20036;-66
2023/10/12 10:07:53;;;;;;;12.07;5.35;;;;;;;19.67;62.78;100656.75;4212452;28;20040;-67
2023/10/12 10:10:05;;;;;;;14.65;5.55;;;;;;;19.65;62.75;100666.44;4214009;28;20047;-66
2023/10/12 10:12:11;;;;;;;10.00;5.22;;;;;;;19.65;62.95;100669.94;4214066;28;20046;-67
2023/10/12 10:14:17;;;;;;;11.32;5.65;;;;;;;19.69;63.11;100668.13;4213931;28;20454;-66
2023/10/12 10:16:21;;;;;;;12.65;6.15;;;;;;;19.68;62.29;100669.91;4214271;28;20032;-66